Time;durP1;ratioP1;P1;durP2;ratioP2;P2;SDS_P1;SDS_P2;PMS_P1;PMS_P2;Temp;Humidity;BMP_temperature;BMP_pressure;BME280_temperature;BME280_humidity;BME280_pressure;Samples;Min_cycle;Max_cycle;Signal;HPM_P1;HPM_P2
2022/07/23 00:02:02;;;;;;;6.20;1.70;;;24.50;52.90;;;;;;5004926;28;20372;-56
2022/07/23 00:04:28;;;;;;;5.28;1.65;;;24.50;53.00;;;;;;5005243;28;20422;-55
2022/07/23 00:06:53;;;;;;;4.85;1.90;;;24.50;52.90;;;;;;5002759;28;20450;-55
2022/07/23 00:09:19;;;;;;;4.28;1.90;;;24.50;53.00;;;;;;5005606;28;20445;-55
2022/07/23 00:11:45;;;;;;;5.25;1.92;;;24.40;52.90;;;;;;5003742;28;20510;-56
2022/07/23 00:14:10;;;;;;;4.53;1.60;;;24.40;53.00;;;;;;5001636;28;20026;-55
2022/07/23 00:16:36;;;;;;;5.60;1.85;;;24.40;52.90;;;;;;5003628;28;20113;-56
2022/07/23 00:19:02;;;;;;;7.15;1.90;;;24.40;52.90;;;;;;5004689;28;20069;-55
2022/07/23 00:21:28;;;;;;;4.90;1.80;;;24.40;52.90;;;;;;5007397;28;20026;-55
2022/07/23 00:23:54;;;;;;;5.30;1.80;;;24.40;53.00;;;;;;5003520;28;20034;-55
2022/07/23 00:26:19;;;;;;;3.97;1.60;;;24.40;53.00;;;;;;5006381;28;20502;-55
2022/07/23 00:28:45;;;;;;;4.57;1.80;;;24.40;53.00;;;;;;5005549;28;20026;-55
2022/07/23 00:31:10;;;;;;;5.68;1.65;;;24.40;53.00;;;;;;5005079;28;20033;-55
2022/07/23 00:33:36;;;;;;;4.00;1.70;;;24.40;53.00;;;;;;5004946;28;20045;-55
2022/07/23 00:36:02;;;;;;;3.38;1.52;;;24.40;53.00;;;;;;5005497;28;20022;-56
2022/07/23 00:38:27;;;;;;;6.85;1.77;;;24.40;53.00;;;;;;5005371;28;20050;-56
2022/07/23 00:40:53;;;;;;;5.50;1.77;;;24.30;53.00;;;;;;5003016;28;20109;-55
2022/07/23 00:43:21;;;;;;;5.13;1.85;;;24.30;53.00;;;;;;5005912;28;20041;-55
2022/07/23 00:45:46;;;;;;;4.50;1.75;;;24.40;53.10;;;;;;5003423;28;20030;-55
2022/07/23 00:48:12;;;;;;;4.57;1.70;;;24.30;53.00;;;;;;5003021;28;20107;-55
2022/07/23 00:50:38;;;;;;;5.07;1.73;;;24.30;53.20;;;;;;5005186;28;20437;-56
2022/07/23 00:53:04;;;;;;;4.55;1.90;;;24.30;53.10;;;;;;5004472;28;20493;-56
2022/07/23 00:55:30;;;;;;;4.35;1.85;;;24.30;53.10;;;;;;5002579;28;20091;-55
2022/07/23 00:57:55;;;;;;;4.38;1.80;;;24.30;53.10;;;;;;5006443;28;20022;-56
2022/07/23 01:00:21;;;;;;;3.88;1.50;;;24.30;53.20;;;;;;5003442;28;20062;-55
2022/07/23 01:02:47;;;;;;;4.80;1.70;;;24.30;53.20;;;;;;5004290;28;20113;-56
2022/07/23 01:05:13;;;;;;;5.07;1.85;;;24.30;53.20;;;;;;5004258;28;20085;-55
2022/07/23 01:07:38;;;;;;;5.00;1.70;;;24.20;53.10;;;;;;5002306;28;20022;-55
2022/07/23 01:10:30;;;;;;;3.58;1.55;;;24.20;53.20;;;;;;5007183;28;20026;-55
2022/07/23 01:12:50;;;;;;;4.57;1.65;;;24.20;53.10;;;;;;5005162;28;20467;-55
2022/07/23 01:15:16;;;;;;;3.28;1.50;;;24.20;53.20;;;;;;5001001;28;20113;-55
2022/07/23 01:17:41;;;;;;;4.15;1.50;;;24.20;53.20;;;;;;5003484;28;20117;-55
2022/07/23 01:20:08;;;;;;;4.43;1.60;;;24.20;53.20;;;;;;5004792;28;20125;-55
2022/07/23 01:22:33;;;;;;;3.72;1.77;;;24.20;53.20;;;;;;5005377;28;20022;-56
2022/07/23 01:24:59;;;;;;;2.58;1.42;;;24.20;53.30;;;;;;5023691;28;20557;-55
2022/07/23 01:27:24;;;;;;;4.07;1.67;;;24.20;53.30;;;;;;5003583;28;20501;-56
2022/07/23 01:29:50;;;;;;;3.70;1.60;;;24.10;53.30;;;;;;5005006;28;20022;-55
2022/07/23 01:32:16;;;;;;;3.33;1.50;;;24.10;53.30;;;;;;5004310;28;20026;-55
2022/07/23 01:34:41;;;;;;;3.78;1.75;;;24.20;53.40;;;;;;5004706;28;20049;-56
2022/07/23 01:37:07;;;;;;;3.60;1.60;;;24.10;53.30;;;;;;5006810;28;20033;-55
2022/07/23 01:39:33;;;;;;;4.18;1.40;;;24.10;53.30;;;;;;5004952;28;20022;-55
2022/07/23 01:41:58;;;;;;;3.33;1.50;;;24.10;53.40;;;;;;5002113;28;20398;-56
2022/07/23 01:44:24;;;;;;;4.70;1.80;;;24.10;53.40;;;;;;5004572;28;20483;-54
2022/07/23 01:46:49;;;;;;;4.72;1.80;;;24.10;53.40;;;;;;5004380;28;20487;-55
2022/07/23 01:49:15;;;;;;;4.05;1.55;;;24.10;53.40;;;;;;5004980;28;20095;-56
2022/07/23 01:51:59;;;;;;;3.10;1.40;;;24.10;53.40;;;;;;5018870;28;20030;-55
2022/07/23 01:54:31;;;;;;;3.50;1.50;;;24.00;53.40;;;;;;5001569;28;20041;-55
2022/07/23 01:56:57;;;;;;;3.13;1.52;;;24.10;53.50;;;;;;5002751;28;20077;-55
2022/07/23 01:59:23;;;;;;;5.72;1.63;;;24.00;53.40;;;;;;5003699;28;20073;-55
2022/07/23 02:01:50;;;;;;;4.70;1.65;;;24.00;53.50;;;;;;5004079;28;20026;-54
2022/07/23 02:04:17;;;;;;;2.92;1.40;;;24.00;53.40;;;;;;5000674;28;20080;-55
2022/07/23 02:06:43;;;;;;;3.17;1.73;;;24.00;53.50;;;;;;5004025;28;20036;-55
2022/07/23 02:09:08;;;;;;;3.30;1.58;;;24.00;53.40;;;;;;5002650;28;20030;-55
2022/07/23 02:11:34;;;;;;;3.97;1.55;;;24.00;53.50;;;;;;5005499;28;20076;-55
2022/07/23 02:14:00;;;;;;;4.25;1.42;;;24.00;53.50;;;;;;5002505;28;20029;-56
2022/07/23 02:16:25;;;;;;;4.13;1.50;;;24.00;53.50;;;;;;5004714;28;20030;-54
2022/07/23 02:18:51;;;;;;;4.15;1.70;;;24.00;53.50;;;;;;5003551;28;20084;-55
2022/07/23 02:21:17;;;;;;;6.00;1.80;;;24.00;53.50;;;;;;5005747;28;20052;-56
2022/07/23 02:23:42;;;;;;;3.33;1.42;;;24.00;53.50;;;;;;5002538;28;20149;-55
2022/07/23 02:26:08;;;;;;;2.53;1.48;;;24.00;53.50;;;;;;5004107;28;20029;-56
2022/07/23 02:28:33;;;;;;;3.63;1.70;;;23.90;53.50;;;;;;5003711;28;20100;-55
2022/07/23 02:30:59;;;;;;;3.90;1.60;;;23.90;53.60;;;;;;5004071;28;20079;-55
2022/07/23 02:33:25;;;;;;;3.70;1.60;;;23.90;53.60;;;;;;5003866;28;20670;-55
2022/07/23 02:35:50;;;;;;;3.00;1.60;;;23.90;53.60;;;;;;5002625;28;20104;-56
2022/07/23 02:38:16;;;;;;;3.97;1.50;;;23.90;53.60;;;;;;5002783;28;20033;-54
2022/07/23 02:40:42;;;;;;;2.60;1.40;;;23.90;53.60;;;;;;5002471;28;20040;-55
2022/07/23 02:43:07;;;;;;;4.13;1.70;;;23.90;53.60;;;;;;5002340;28;20030;-55
2022/07/23 02:45:33;;;;;;;3.85;1.70;;;23.90;53.70;;;;;;5005311;28;20505;-55
2022/07/23 02:47:59;;;;;;;1.83;1.30;;;23.80;53.60;;;;;;5003758;28;20542;-55
2022/07/23 02:50:24;;;;;;;4.03;1.60;;;23.80;53.60;;;;;;5004406;28;20050;-55
2022/07/23 02:52:50;;;;;;;2.92;1.50;;;23.80;53.60;;;;;;5001832;28;20026;-55
2022/07/23 02:55:16;;;;;;;4.22;1.73;;;23.80;53.70;;;;;;5004398;28;20042;-56
2022/07/23 02:57:41;;;;;;;3.58;1.50;;;23.80;53.70;;;;;;5003580;28;20037;-56
2022/07/23 03:00:08;;;;;;;3.88;1.52;;;23.80;53.70;;;;;;5004173;28;20026;-56
2022/07/23 03:02:33;;;;;;;2.90;1.60;;;23.80;53.70;;;;;;5002385;28;20026;-55
2022/07/23 03:04:59;;;;;;;2.53;1.40;;;23.80;53.70;;;;;;5005105;28;20033;-55
2022/07/23 03:07:25;;;;;;;3.80;1.63;;;23.80;53.80;;;;;;5004820;28;20604;-55
2022/07/23 03:09:50;;;;;;;4.43;1.50;;;23.80;53.70;;;;;;5003282;28;20104;-55
2022/07/23 03:12:16;;;;;;;2.38;1.40;;;23.80;53.80;;;;;;5001968;28;20121;-55
2022/07/23 03:14:42;;;;;;;2.78;1.40;;;23.80;53.80;;;;;;5004509;28;20070;-55
2022/07/23 03:17:07;;;;;;;3.78;1.45;;;23.80;53.80;;;;;;5004464;28;20026;-55
2022/07/23 03:19:33;;;;;;;3.70;1.60;;;23.70;53.80;;;;;;5003606;28;20443;-55
2022/07/23 03:21:59;;;;;;;5.03;1.60;;;23.80;53.90;;;;;;5002919;28;20023;-56
2022/07/23 03:24:53;;;;;;;3.30;1.70;;;23.80;53.80;;;;;;5003521;28;20486;-55
2022/07/23 03:27:10;;;;;;;3.38;1.65;;;23.70;53.80;;;;;;4999694;28;20038;-55
2022/07/23 03:29:36;;;;;;;3.55;1.52;;;23.80;53.80;;;;;;5004472;28;20087;-55
2022/07/23 03:32:03;;;;;;;3.55;1.60;;;23.70;53.80;;;;;;5000085;28;20049;-56
2022/07/23 03:34:29;;;;;;;3.83;1.33;;;23.70;53.80;;;;;;5002402;28;22128;-55
2022/07/23 03:36:54;;;;;;;2.80;1.50;;;23.70;53.90;;;;;;5003961;28;20033;-55
2022/07/23 03:39:20;;;;;;;3.70;1.50;;;23.70;53.90;;;;;;5003585;28;20034;-56
2022/07/23 03:41:46;;;;;;;2.65;1.38;;;23.70;53.90;;;;;;5005917;28;20462;-55
2022/07/23 03:44:11;;;;;;;2.70;1.50;;;23.70;54.00;;;;;;5006838;28;20540;-55
2022/07/23 03:46:37;;;;;;;2.83;1.40;;;23.70;54.00;;;;;;5007329;28;20608;-55
2022/07/23 03:49:02;;;;;;;3.10;1.40;;;23.70;54.00;;;;;;5007715;28;20542;-56
2022/07/23 03:51:28;;;;;;;2.40;1.38;;;23.60;54.00;;;;;;5004598;28;20463;-56
2022/07/23 03:53:55;;;;;;;2.38;1.45;;;23.70;54.00;;;;;;5007182;28;20102;-55
2022/07/23 03:56:20;;;;;;;4.35;1.63;;;23.60;53.90;;;;;;5005975;28;20180;-55
2022/07/23 03:58:46;;;;;;;2.38;1.35;;;23.60;54.00;;;;;;5004837;28;20526;-56
2022/07/23 04:01:12;;;;;;;3.28;1.50;;;23.60;53.90;;;;;;5007609;28;20030;-56
2022/07/23 04:03:37;;;;;;;2.47;1.52;;;23.60;53.90;;;;;;5006667;28;20044;-55
2022/07/23 04:06:03;;;;;;;3.05;1.30;;;23.60;54.00;;;;;;5005795;28;20541;-55
2022/07/23 04:08:29;;;;;;;2.85;1.40;;;23.60;54.00;;;;;;5006912;28;20017;-55
2022/07/23 04:10:55;;;;;;;3.10;1.33;;;23.60;54.00;;;;;;5005025;28;20041;-56
2022/07/23 04:13:21;;;;;;;2.60;1.30;;;23.60;54.00;;;;;;5004826;28;20509;-55
2022/07/23 04:15:46;;;;;;;2.55;1.30;;;23.60;54.00;;;;;;5002935;28;20026;-55
2022/07/23 04:18:12;;;;;;;2.50;1.35;;;23.60;54.00;;;;;;5004320;28;20025;-55
2022/07/23 04:20:37;;;;;;;4.22;1.40;;;23.60;54.00;;;;;;5004270;28;20049;-56
2022/07/23 04:23:03;;;;;;;3.42;1.50;;;23.60;54.00;;;;;;5006972;28;20118;-55
2022/07/23 04:25:29;;;;;;;3.20;1.33;;;23.60;54.00;;;;;;5005511;28;20037;-55
2022/07/23 04:27:54;;;;;;;2.70;1.40;;;23.60;54.00;;;;;;5004865;28;20029;-56
2022/07/23 04:30:20;;;;;;;2.53;1.50;;;23.50;53.90;;;;;;5005507;28;20028;-55
2022/07/23 04:32:46;;;;;;;3.22;1.30;;;23.50;53.90;;;;;;5004888;28;20038;-54
2022/07/23 04:35:11;;;;;;;2.85;1.42;;;23.60;54.00;;;;;;5004474;28;20493;-55
2022/07/23 04:37:37;;;;;;;2.28;1.30;;;23.50;53.90;;;;;;5004649;28;20026;-55
2022/07/23 04:40:03;;;;;;;1.90;1.40;;;23.50;54.00;;;;;;5006708;28;20644;-55
2022/07/23 04:42:29;;;;;;;2.78;1.30;;;23.50;53.90;;;;;;5005224;28;20033;-54
2022/07/23 04:44:54;;;;;;;1.50;1.10;;;23.50;54.00;;;;;;5006523;28;20022;-54
2022/07/23 04:47:20;;;;;;;2.78;1.38;;;23.50;53.90;;;;;;5006293;28;20030;-53
2022/07/23 04:49:45;;;;;;;3.00;1.40;;;23.50;53.90;;;;;;5004794;28;20088;-55
2022/07/23 04:52:11;;;;;;;2.33;1.15;;;23.50;54.00;;;;;;5005488;28;20029;-55
2022/07/23 04:54:37;;;;;;;2.17;1.20;;;23.50;54.00;;;;;;5003644;28;20033;-56
2022/07/23 04:57:03;;;;;;;3.63;1.40;;;23.40;54.00;;;;;;5005236;28;20025;-55
2022/07/23 04:59:28;;;;;;;2.17;1.40;;;23.40;54.00;;;;;;5004360;28;20030;-55
2022/07/23 05:01:54;;;;;;;2.53;1.30;;;23.50;54.10;;;;;;5004432;28;20022;-54
2022/07/23 05:04:19;;;;;;;2.80;1.40;;;23.40;55.10;;;;;;5006447;28;20037;-55
2022/07/23 05:06:45;;;;;;;1.83;1.25;;;23.50;54.10;;;;;;5004510;28;20038;-55
2022/07/23 05:09:11;;;;;;;3.67;1.33;;;23.40;54.10;;;;;;5003939;28;20057;-55
2022/07/23 05:11:36;;;;;;;2.53;1.23;;;23.40;54.10;;;;;;5005199;28;20065;-55
2022/07/23 05:14:02;;;;;;;2.92;1.40;;;23.40;54.10;;;;;;5005607;28;20045;-55
2022/07/23 05:16:28;;;;;;;3.22;1.45;;;23.40;54.10;;;;;;5018481;28;20029;-55
2022/07/23 05:18:53;;;;;;;2.40;1.25;;;23.40;54.20;;;;;;5005378;28;20032;-55
2022/07/23 05:21:19;;;;;;;3.47;1.50;;;23.40;54.10;;;;;;5004091;28;20080;-55
2022/07/23 05:23:45;;;;;;;2.78;1.40;;;23.40;54.20;;;;;;5004317;28;20498;-55
2022/07/23 05:26:10;;;;;;;3.17;1.50;;;23.40;54.20;;;;;;5006423;28;20105;-54
2022/07/23 05:28:36;;;;;;;4.32;1.40;;;23.40;54.20;;;;;;5003939;28;20026;-56
2022/07/23 05:31:03;;;;;;;2.95;1.30;;;23.30;54.10;;;;;;5004675;28;20030;-55
2022/07/23 05:33:30;;;;;;;2.33;1.42;;;23.40;54.20;;;;;;5001298;28;20021;-54
2022/07/23 05:36:01;;;;;;;4.10;1.38;;;23.30;54.20;;;;;;5002483;28;20096;-56
2022/07/23 05:38:27;;;;;;;3.03;1.40;;;23.30;54.20;;;;;;5002686;28;20031;-55
2022/07/23 05:40:52;;;;;;;2.70;1.33;;;23.30;54.20;;;;;;5003106;28;20136;-56
2022/07/23 05:43:19;;;;;;;2.25;1.13;;;23.30;54.20;;;;;;5004239;28;20414;-56
2022/07/23 05:45:45;;;;;;;2.10;1.13;;;23.30;54.20;;;;;;5006781;28;20026;-55
2022/07/23 05:48:10;;;;;;;3.10;1.38;;;23.30;54.20;;;;;;5003759;28;20034;-54
2022/07/23 05:50:36;;;;;;;2.08;1.17;;;23.30;54.30;;;;;;5006803;28;20572;-56
2022/07/23 05:53:02;;;;;;;2.88;1.30;;;23.30;54.30;;;;;;5006319;28;20509;-54
2022/07/23 05:55:28;;;;;;;2.75;1.30;;;23.30;54.20;;;;;;5007494;28;20502;-56
2022/07/23 05:57:56;;;;;;;1.77;1.20;;;23.30;54.20;;;;;;5005488;28;20026;-54
2022/07/23 06:00:21;;;;;;;2.38;1.40;;;23.30;54.30;;;;;;5005417;28;20041;-55
2022/07/23 06:02:47;;;;;;;2.85;1.50;;;23.30;54.30;;;;;;5003416;28;20387;-56
2022/07/23 06:05:12;;;;;;;2.40;1.27;;;23.20;54.30;;;;;;5004724;28;20113;-54
2022/07/23 06:07:38;;;;;;;3.35;1.33;;;23.30;54.30;;;;;;5001922;28;20054;-55
2022/07/23 06:10:10;;;;;;;1.95;1.10;;;23.20;54.30;;;;;;5002828;28;20034;-52
2022/07/23 06:12:36;;;;;;;2.08;1.40;;;23.20;54.30;;;;;;5013137;28;20038;-53
2022/07/23 06:15:02;;;;;;;2.72;1.23;;;23.20;54.30;;;;;;5003301;28;20092;-53
2022/07/23 06:17:28;;;;;;;2.67;1.27;;;23.20;54.30;;;;;;5004647;28;20105;-53
2022/07/23 06:19:54;;;;;;;1.73;1.00;;;23.20;54.30;;;;;;5006251;28;20133;-53
2022/07/23 06:22:21;;;;;;;2.28;1.25;;;23.20;54.30;;;;;;5007022;28;20060;-52
2022/07/23 06:24:47;;;;;;;1.98;1.17;;;23.30;54.30;;;;;;5006349;28;20053;-54
2022/07/23 06:27:13;;;;;;;4.78;1.20;;;23.20;54.20;;;;;;5006531;28;20085;-54
2022/07/23 06:29:41;;;;;;;2.17;1.10;;;23.30;54.30;;;;;;5005858;28;20042;-52
2022/07/23 06:32:07;;;;;;;3.20;1.40;;;23.20;54.30;;;;;;5002341;28;20038;-53
2022/07/23 06:34:33;;;;;;;1.98;1.30;;;23.30;54.40;;;;;;5004810;28;20038;-51
2022/07/23 06:36:59;;;;;;;2.88;1.20;;;23.20;54.30;;;;;;5005330;28;20433;-53
2022/07/23 06:39:24;;;;;;;2.08;1.27;;;23.20;54.30;;;;;;5005384;28;20033;-54
2022/07/23 06:41:50;;;;;;;1.75;1.00;;;23.20;54.30;;;;;;5004505;28;20022;-52
2022/07/23 06:44:16;;;;;;;2.10;1.27;;;23.20;54.30;;;;;;5005305;28;20038;-54
2022/07/23 06:46:41;;;;;;;2.72;1.10;;;23.20;54.30;;;;;;5002147;28;20037;-54
2022/07/23 06:49:07;;;;;;;1.90;1.10;;;23.20;54.30;;;;;;5005284;28;20073;-53
2022/07/23 06:51:33;;;;;;;2.63;1.10;;;23.20;54.30;;;;;;5004975;28;20058;-54
2022/07/23 06:53:59;;;;;;;1.75;1.15;;;23.20;54.30;;;;;;5005355;28;20037;-53
2022/07/23 06:56:24;;;;;;;2.28;1.10;;;23.20;54.30;;;;;;5004912;28;20057;-53
2022/07/23 06:58:50;;;;;;;1.27;0.90;;;23.20;54.30;;;;;;5003675;28;20030;-53
2022/07/23 07:01:16;;;;;;;2.75;1.23;;;23.20;54.30;;;;;;4999372;28;20030;-54
2022/07/23 07:03:41;;;;;;;3.70;1.30;;;23.20;54.30;;;;;;4996146;28;20347;-54
2022/07/23 07:06:07;;;;;;;2.13;1.30;;;23.20;54.30;;;;;;4999663;28;20030;-53
2022/07/23 07:08:34;;;;;;;2.97;1.20;;;23.20;54.30;;;;;;5000973;28;20054;-53
2022/07/23 07:11:01;;;;;;;4.07;1.40;;;23.20;54.30;;;;;;4999273;28;20026;-54
2022/07/23 07:13:28;;;;;;;5.07;1.40;;;23.20;54.30;;;;;;5000306;28;20034;-52
2022/07/23 07:15:57;;;;;;;2.58;1.33;;;23.20;54.30;;;;;;5002990;28;20084;-53
2022/07/23 07:18:23;;;;;;;1.85;1.15;;;23.30;54.50;;;;;;5009071;28;20030;-54
2022/07/23 07:20:49;;;;;;;4.32;1.40;;;23.30;54.50;;;;;;5007262;28;20053;-54
2022/07/23 07:23:15;;;;;;;2.55;1.45;;;23.30;54.70;;;;;;5004648;28;20055;-54
2022/07/23 07:25:40;;;;;;;4.30;1.50;;;23.30;54.90;;;;;;5001816;28;20029;-53
2022/07/23 07:28:06;;;;;;;3.92;1.30;;;23.20;55.00;;;;;;5006625;28;20411;-53
2022/07/23 07:30:31;;;;;;;5.18;1.45;;;23.20;55.20;;;;;;5008689;28;20394;-52
2022/07/23 07:32:57;;;;;;;6.20;1.42;;;23.20;55.10;;;;;;5008630;28;20034;-52
2022/07/23 07:35:24;;;;;;;8.85;1.75;;;23.20;55.20;;;;;;5007646;28;20050;-53
2022/07/23 07:37:50;;;;;;;6.05;1.40;;;23.20;55.70;;;;;;5003781;28;20685;-53
2022/07/23 07:40:16;;;;;;;6.78;1.58;;;23.10;55.70;;;;;;5003567;28;20053;-54
2022/07/23 07:42:50;;;;;;;4.20;1.50;;;23.10;55.70;;;;;;5007909;28;20080;-54
2022/07/23 07:45:15;;;;;;;4.20;1.42;;;23.10;55.70;;;;;;5021008;28;20783;-53
2022/07/23 07:47:41;;;;;;;5.13;1.75;;;23.10;55.80;;;;;;5006593;28;20018;-54
2022/07/23 07:50:07;;;;;;;4.68;1.27;;;23.10;55.90;;;;;;5007512;28;20038;-54
2022/07/23 07:52:36;;;;;;;4.47;1.50;;;23.10;56.10;;;;;;5004363;28;20026;-53
2022/07/23 07:55:03;;;;;;;3.15;1.60;;;23.10;55.90;;;;;;5003088;28;20053;-53
2022/07/23 07:57:29;;;;;;;4.07;1.70;;;23.10;56.10;;;;;;5002124;28;20141;-53
2022/07/23 07:59:55;;;;;;;2.75;1.50;;;23.10;56.10;;;;;;5005604;28;20450;-49
2022/07/23 08:02:21;;;;;;;4.90;1.58;;;23.10;56.00;;;;;;5001658;28;20113;-53
2022/07/23 08:04:47;;;;;;;4.13;1.55;;;23.10;55.80;;;;;;5007278;28;20049;-53
2022/07/23 08:07:12;;;;;;;7.13;1.70;;;23.20;55.70;;;;;;5007171;28;20065;-52
2022/07/23 08:09:38;;;;;;;3.75;1.70;;;23.20;55.60;;;;;;5007577;28;20065;-53
2022/07/23 08:12:04;;;;;;;4.82;1.40;;;23.20;55.50;;;;;;5007611;28;20080;-53
2022/07/23 08:14:29;;;;;;;5.70;1.60;;;23.20;55.50;;;;;;5005501;28;20080;-53
2022/07/23 08:16:55;;;;;;;4.57;1.58;;;23.20;55.60;;;;;;5007518;28;20466;-52
2022/07/23 08:19:21;;;;;;;3.83;1.60;;;23.20;55.40;;;;;;5003728;28;20574;-52
2022/07/23 08:21:47;;;;;;;5.07;1.67;;;23.20;55.50;;;;;;5007959;28;20026;-52
2022/07/23 08:24:12;;;;;;;2.67;1.40;;;23.30;55.40;;;;;;5005388;28;20023;-51
2022/07/23 08:26:38;;;;;;;2.03;1.30;;;23.30;55.50;;;;;;5006753;28;20030;-51
2022/07/23 08:29:03;;;;;;;5.57;1.65;;;23.30;55.40;;;;;;5007229;28;20046;-53
2022/07/23 08:31:29;;;;;;;4.63;1.60;;;23.30;55.50;;;;;;5007226;28;20464;-52
2022/07/23 08:33:56;;;;;;;4.15;1.55;;;23.30;55.40;;;;;;5005752;28;20030;-52
2022/07/23 08:36:22;;;;;;;3.65;1.40;;;23.20;56.40;;;;;;5004171;28;20108;-53
2022/07/23 08:38:47;;;;;;;3.15;1.50;;;23.30;55.30;;;;;;5005209;28;20101;-53
2022/07/23 08:41:13;;;;;;;4.85;1.40;;;23.30;55.40;;;;;;5008391;28;20029;-52
2022/07/23 08:43:40;;;;;;;4.75;1.40;;;23.30;55.80;;;;;;5007041;28;20537;-52
2022/07/23 08:46:06;;;;;;;4.88;1.70;;;23.30;55.30;;;;;;4990683;28;20501;-52
2022/07/23 08:48:36;;;;;;;6.43;1.30;;;23.40;55.30;;;;;;5008867;28;20041;-53
2022/07/23 08:51:03;;;;;;;3.95;1.63;;;23.40;55.40;;;;;;5007744;28;20037;-52
2022/07/23 08:53:29;;;;;;;3.60;1.40;;;23.40;55.50;;;;;;5007283;28;20096;-52
2022/07/23 08:56:02;;;;;;;6.97;1.50;;;23.40;55.50;;;;;;5003612;28;20414;-53
2022/07/23 08:58:28;;;;;;;4.35;1.40;;;23.40;55.50;;;;;;5005075;28;20050;-52
2022/07/23 09:00:54;;;;;;;7.22;1.58;;;23.50;55.50;;;;;;5005524;28;20057;-51
2022/07/23 09:03:24;;;;;;;7.32;1.65;;;23.50;55.60;;;;;;5005863;28;20033;-52
2022/07/23 09:05:50;;;;;;;4.97;1.90;;;23.50;55.60;;;;;;5006577;28;20030;-53
2022/07/23 09:08:18;;;;;;;4.60;1.52;;;23.50;55.40;;;;;;5007483;28;20061;-52
2022/07/23 09:10:57;;;;;;;4.57;1.75;;;23.50;55.60;;;;;;5005753;28;20112;-53
2022/07/23 09:13:28;;;;;;;4.28;1.80;;;23.50;55.60;;;;;;5005876;28;20014;-53
2022/07/23 09:15:54;;;;;;;6.82;1.90;;;23.60;55.60;;;;;;5003036;28;20038;-53
2022/07/23 09:18:38;;;;;;;5.30;1.60;;;23.60;55.50;;;;;;5007356;28;20041;-52
2022/07/23 09:21:12;;;;;;;4.72;1.70;;;23.60;55.60;;;;;;5001523;28;20104;-54
2022/07/23 09:23:41;;;;;;;;;;;23.60;55.50;;;;;;5006750;28;20033;-52
2022/07/23 09:26:23;;;;;;;4.82;1.60;;;23.60;55.60;;;;;;5005930;28;19996;-51
2022/07/23 09:29:08;;;;;;;4.53;1.70;;;23.70;55.60;;;;;;5008381;28;20180;-53
2022/07/23 09:31:54;;;;;;;6.28;1.98;;;23.70;55.40;;;;;;5002048;28;20109;-52
2022/07/23 09:34:23;;;;;;;7.93;2.55;;;23.70;55.30;;;;;;5005491;28;20046;-53
2022/07/23 09:36:50;;;;;;;5.82;2.40;;;23.70;55.40;;;;;;5005183;28;20018;-51
2022/07/23 09:39:21;;;;;;;8.50;2.20;;;23.70;55.50;;;;;;5005879;28;20402;-51
2022/07/23 09:41:47;;;;;;;6.53;2.20;;;23.70;55.30;;;;;;5003824;28;20068;-52
2022/07/23 09:44:17;;;;;;;9.70;2.50;;;23.70;55.40;;;;;;5005583;28;20030;-54
2022/07/23 09:46:44;;;;;;;7.28;2.50;;;23.80;55.30;;;;;;5005370;28;20022;-53
2022/07/23 09:49:20;;;;;;;11.98;2.65;;;23.80;55.30;;;;;;5001745;28;20038;-53
2022/07/23 09:51:59;;;;;;;8.25;2.60;;;23.80;55.40;;;;;;5003304;28;20026;-52
2022/07/23 09:54:35;;;;;;;8.45;2.60;;;23.80;55.20;;;;;;5004906;28;20042;-53
2022/07/23 09:57:07;;;;;;;7.35;2.28;;;23.80;55.30;;;;;;5006270;28;20401;-53
2022/07/23 09:59:35;;;;;;;5.85;2.33;;;23.80;56.10;;;;;;5005576;28;20117;-52
2022/07/23 10:02:01;;;;;;;7.63;2.15;;;23.80;55.10;;;;;;5004020;28;20025;-53
2022/07/23 10:04:28;;;;;;;4.85;2.10;;;23.70;55.00;;;;;;5005067;28;20042;-53
2022/07/23 10:07:02;;;;;;;6.95;2.30;;;23.70;55.30;;;;;;5003455;28;20034;-52
2022/07/23 10:09:32;;;;;;;4.10;2.00;;;23.70;55.30;;;;;;4999815;28;20674;-52
2022/07/23 10:14:49;;;;;;;4.97;2.40;;;23.80;55.60;;;;;;5004513;28;20067;-53
2022/07/23 10:17:14;;;;;;;4.55;2.08;;;23.70;55.30;;;;;;5003936;28;20550;-53
2022/07/23 10:19:40;;;;;;;3.60;2.00;;;23.70;55.30;;;;;;5006159;28;20124;-53
2022/07/23 10:22:26;;;;;;;6.75;1.92;;;23.70;55.30;;;;;;5006668;28;20060;-53
2022/07/23 10:25:16;;;;;;;4.30;1.90;;;23.70;55.20;;;;;;5004363;28;20040;-54
2022/07/23 10:27:50;;;;;;;4.38;2.05;;;23.70;55.30;;;;;;5004482;28;20113;-53
2022/07/23 10:30:23;;;;;;;4.93;1.90;;;23.70;55.50;;;;;;5006021;28;20065;-52
2022/07/23 10:33:23;;;;;;;3.10;1.85;;;23.70;55.50;;;;;;5017452;28;20030;-53
2022/07/23 10:36:07;;;;;;;4.80;2.10;;;23.70;55.80;;;;;;5004065;28;20040;-53
2022/07/23 10:39:08;;;;;;;5.70;2.17;;;23.80;56.10;;;;;;4988110;28;20088;-53
2022/07/23 10:41:41;;;;;;;4.22;1.90;;;23.80;56.00;;;;;;4986388;28;20118;-53
2022/07/23 10:44:08;;;;;;;4.13;2.10;;;23.80;56.10;;;;;;5002624;28;20045;-53
2022/07/23 10:49:23;;;;;;;5.35;2.28;;;23.80;56.20;;;;;;5001329;28;20050;-52
2022/07/23 10:52:13;;;;;;;9.80;2.28;;;23.80;56.20;;;;;;5004758;28;20415;-52
2022/07/23 10:54:41;;;;;;;6.18;2.30;;;23.80;56.40;;;;;;5008100;28;20133;-53
2022/07/23 10:57:08;;;;;;;7.45;2.33;;;23.80;56.30;;;;;;5022762;28;20516;-53
2022/07/23 11:00:06;;;;;;;6.72;2.17;;;23.80;56.20;;;;;;5028780;28;20120;-53
2022/07/23 11:02:32;;;;;;;5.43;2.30;;;23.80;56.10;;;;;;5004467;28;20042;-52
2022/07/23 11:05:04;;;;;;;5.22;2.33;;;23.80;56.10;;;;;;5006547;28;20093;-52
2022/07/23 11:07:30;;;;;;;6.00;2.13;;;23.80;56.10;;;;;;5006334;28;20056;-52
2022/07/23 11:09:56;;;;;;;3.67;2.15;;;23.80;56.10;;;;;;5005815;28;20049;-52
2022/07/23 11:12:28;;;;;;;4.55;2.05;;;23.90;56.50;;;;;;5009391;28;20041;-53
2022/07/23 11:15:09;;;;;;;5.13;2.20;;;23.90;56.60;;;;;;5003979;28;20029;-53
2022/07/23 11:17:42;;;;;;;5.95;2.40;;;23.90;56.80;;;;;;5003162;28;20097;-53
2022/07/23 11:20:17;;;;;;;2.65;2.00;;;23.90;57.00;;;;;;5003766;28;20136;-53
2022/07/23 11:22:42;;;;;;;4.25;2.25;;;24.00;56.60;;;;;;5006884;28;20471;-53
2022/07/23 11:25:09;;;;;;;3.83;2.13;;;24.00;56.30;;;;;;5004117;28;20057;-54
2022/07/23 11:27:44;;;;;;;5.47;1.77;;;24.00;56.20;;;;;;5003092;28;20030;-52
2022/07/23 11:30:28;;;;;;;6.60;2.63;;;24.00;56.40;;;;;;5006662;28;20120;-53
2022/07/23 11:33:07;;;;;;;9.23;3.60;;;24.00;56.80;;;;;;5001760;28;20029;-52
2022/07/23 11:35:33;;;;;;;6.88;2.90;;;24.00;56.80;;;;;;5002962;28;20080;-53
2022/07/23 11:38:08;;;;;;;6.40;2.90;;;24.10;56.60;;;;;;5005053;28;20026;-53
2022/07/23 11:40:34;;;;;;;8.73;3.20;;;24.10;56.50;;;;;;5015683;28;20091;-53
2022/07/23 11:43:01;;;;;;;6.85;3.42;;;24.10;56.20;;;;;;5006416;28;20057;-53
2022/07/23 11:45:35;;;;;;;6.55;3.00;;;24.10;56.40;;;;;;5006127;28;20076;-53
2022/07/23 11:48:01;;;;;;;7.07;2.97;;;24.10;56.60;;;;;;5005426;28;20096;-52
2022/07/23 11:50:27;;;;;;;6.38;3.45;;;24.10;56.60;;;;;;5002305;28;20042;-53
2022/07/23 11:52:54;;;;;;;7.93;3.45;;;24.10;56.60;;;;;;5003675;28;20034;-54
2022/07/23 11:55:20;;;;;;;7.15;3.95;;;24.10;56.60;;;;;;5002379;28;20042;-52
2022/07/23 11:57:45;;;;;;;7.22;3.72;;;24.20;56.70;;;;;;5004244;28;20778;-53
2022/07/23 12:00:12;;;;;;;8.50;4.07;;;24.10;56.60;;;;;;5003816;28;20469;-52
2022/07/23 12:02:39;;;;;;;8.20;4.43;;;24.10;56.60;;;;;;5005206;28;20032;-53
2022/07/23 12:05:05;;;;;;;8.25;4.47;;;24.20;56.40;;;;;;5002808;28;20087;-52
2022/07/23 12:07:39;;;;;;;9.07;4.53;;;24.20;57.60;;;;;;5005498;28;20541;-52
2022/07/23 12:10:18;;;;;;;5.88;3.25;;;24.20;56.60;;;;;;5008121;28;20125;-53
2022/07/23 12:12:52;;;;;;;10.38;3.67;;;24.20;56.60;;;;;;5007512;28;20033;-53
2022/07/23 12:15:21;;;;;;;6.78;3.13;;;24.10;56.60;;;;;;5021757;28;20034;-52
2022/07/23 12:17:47;;;;;;;4.65;2.58;;;24.20;56.50;;;;;;5004831;28;20033;-52
2022/07/23 12:20:15;;;;;;;6.93;2.97;;;24.20;56.60;;;;;;5005971;28;20054;-53
2022/07/23 12:22:43;;;;;;;6.03;2.90;;;24.20;56.40;;;;;;4999691;28;20018;-53
2022/07/23 12:25:11;;;;;;;5.68;3.20;;;24.20;56.60;;;;;;5017582;28;20045;-52
2022/07/23 12:27:37;;;;;;;6.47;3.08;;;24.20;56.60;;;;;;5005904;28;20032;-54
2022/07/23 12:30:31;;;;;;;7.18;3.00;;;24.20;56.50;;;;;;4987551;28;20030;-54
2022/07/23 12:32:57;;;;;;;8.20;3.17;;;24.20;56.40;;;;;;5001848;28;20046;-53
2022/07/23 12:35:23;;;;;;;7.22;2.85;;;24.20;56.50;;;;;;5005779;28;20061;-53
2022/07/23 12:37:52;;;;;;;7.32;3.38;;;24.30;56.50;;;;;;5002624;28;20096;-54
2022/07/23 12:40:25;;;;;;;8.45;3.35;;;24.20;56.60;;;;;;5004510;28;20026;-52
2022/07/23 12:43:02;;;;;;;19.88;4.50;;;24.20;56.80;;;;;;5004228;28;20026;-52
2022/07/23 12:45:28;;;;;;;12.38;3.40;;;24.20;57.50;;;;;;5004622;28;20018;-53
2022/07/23 12:47:58;;;;;;;10.10;3.40;;;24.20;57.40;;;;;;5018581;28;20105;-53
2022/07/23 12:50:41;;;;;;;7.07;2.90;;;24.30;57.70;;;;;;5002070;28;20034;-53
2022/07/23 12:53:13;;;;;;;7.75;3.25;;;24.20;57.60;;;;;;5004479;28;20092;-53
2022/07/23 12:55:39;;;;;;;5.20;2.97;;;24.20;57.80;;;;;;5023540;28;20585;-53
2022/07/23 12:58:11;;;;;;;7.43;3.10;;;24.10;58.10;;;;;;4999815;28;20098;-52